sensor_id;sensor_type;location;lat;lon;timestamp;pressure;altitude;pressure_sealevel;temperature;humidity
20942;BME280;10630;53.734;10.282;2022-11-04T00:01:27;99699.44;;;17.12;nan
20942;BME280;10630;53.734;10.282;2022-11-04T00:03:54;99697.19;;;16.85;nan
20942;BME280;10630;53.734;10.282;2022-11-04T00:06:21;99698.81;;;16.63;nan
20942;BME280;10630;53.734;10.282;2022-11-04T00:08:52;99697.03;;;17.51;nan
20942;BME280;10630;53.734;10.282;2022-11-04T00:11:22;99702.31;;;16.87;nan
20942;BME280;10630;53.734;10.282;2022-11-04T00:14:08;99701.47;;;17.46;nan
20942;BME280;10630;53.734;10.282;2022-11-04T00:16:35;99689.38;;;17.72;nan
20942;BME280;10630;53.734;10.282;2022-11-04T00:19:23;99684.38;;;17.52;nan
20942;BME280;10630;53.734;10.282;2022-11-04T00:21:50;99683.56;;;17.92;nan
20942;BME280;10630;53.734;10.282;2022-11-04T00:24:36;99676.53;;;17.62;nan
20942;BME280;10630;53.734;10.282;2022-11-04T00:27:22;99683.16;;;16.71;nan
20942;BME280;10630;53.734;10.282;2022-11-04T00:30:08;99677.31;;;17.22;nan
20942;BME280;10630;53.734;10.282;2022-11-04T00:32:35;99686.66;;;17.31;nan
20942;BME280;10630;53.734;10.282;2022-11-04T00:35:21;99679.56;;;17.13;nan
20942;BME280;10630;53.734;10.282;2022-11-04T00:37:48;99690.41;;;17.30;nan
20942;BME280;10630;53.734;10.282;2022-11-04T00:40:15;99679.31;;;17.67;nan
20942;BME280;10630;53.734;10.282;2022-11-04T00:42:42;99676.50;;;17.21;nan
20942;BME280;10630;53.734;10.282;2022-11-04T00:45:09;99668.38;;;17.98;nan
20942;BME280;10630;53.734;10.282;2022-11-04T00:47:42;99657.03;;;17.84;nan
20942;BME280;10630;53.734;10.282;2022-11-04T00:50:09;99649.78;;;17.96;nan
20942;BME280;10630;53.734;10.282;2022-11-04T00:52:36;99657.22;;;17.13;nan
20942;BME280;10630;53.734;10.282;2022-11-04T00:55:03;99648.50;;;17.58;nan
20942;BME280;10630;53.734;10.282;2022-11-04T00:57:30;99647.78;;;17.92;nan
20942;BME280;10630;53.734;10.282;2022-11-04T01:00:00;99680.44;;;17.95;nan
20942;BME280;10630;53.734;10.282;2022-11-04T01:02:26;99673.09;;;18.08;nan
20942;BME280;10630;53.734;10.282;2022-11-04T01:04:54;99660.09;;;17.76;nan
20942;BME280;10630;53.734;10.282;2022-11-04T01:07:21;99643.00;;;17.82;nan
20942;BME280;10630;53.734;10.282;2022-11-04T01:09:48;99648.13;;;17.02;nan
20942;BME280;10630;53.734;10.282;2022-11-04T01:12:17;99643.47;;;16.97;nan
20942;BME280;10630;53.734;10.282;2022-11-04T01:14:43;99646.22;;;17.38;nan
20942;BME280;10630;53.734;10.282;2022-11-04T01:17:18;99642.22;;;17.40;nan
20942;BME280;10630;53.734;10.282;2022-11-04T01:19:45;99636.84;;;17.40;nan
20942;BME280;10630;53.734;10.282;2022-11-04T01:22:12;99636.81;;;17.52;nan
20942;BME280;10630;53.734;10.282;2022-11-04T01:24:39;99626.25;;;17.22;nan
20942;BME280;10630;53.734;10.282;2022-11-04T01:27:06;99618.16;;;17.63;nan
20942;BME280;10630;53.734;10.282;2022-11-04T01:29:40;99620.34;;;17.95;nan
20942;BME280;10630;53.734;10.282;2022-11-04T01:32:07;99623.84;;;17.49;nan
20942;BME280;10630;53.734;10.282;2022-11-04T01:34:33;99612.31;;;17.66;nan
20942;BME280;10630;53.734;10.282;2022-11-04T01:37:13;99604.28;;;18.12;nan
20942;BME280;10630;53.734;10.282;2022-11-04T01:39:40;99597.34;;;17.29;nan
20942;BME280;10630;53.734;10.282;2022-11-04T01:42:11;99600.50;;;17.38;nan
20942;BME280;10630;53.734;10.282;2022-11-04T01:47:19;99601.34;;;18.13;nan
20942;BME280;10630;53.734;10.282;2022-11-04T01:49:49;99605.31;;;17.82;nan
20942;BME280;10630;53.734;10.282;2022-11-04T01:52:19;99614.31;;;17.30;nan
20942;BME280;10630;53.734;10.282;2022-11-04T01:54:47;99606.53;;;17.04;nan
20942;BME280;10630;53.734;10.282;2022-11-04T01:57:25;99600.38;;;17.91;nan
20942;BME280;10630;53.734;10.282;2022-11-04T01:59:54;99598.59;;;17.67;nan
20942;BME280;10630;53.734;10.282;2022-11-04T02:02:23;99602.84;;;17.63;nan
20942;BME280;10630;53.734;10.282;2022-11-04T02:04:50;99598.94;;;17.42;nan
20942;BME280;10630;53.734;10.282;2022-11-04T02:07:18;99600.34;;;17.45;nan
20942;BME280;10630;53.734;10.282;2022-11-04T02:09:53;99594.69;;;17.58;nan
20942;BME280;10630;53.734;10.282;2022-11-04T02:12:20;99592.94;;;17.23;nan
20942;BME280;10630;53.734;10.282;2022-11-04T02:18:03;99607.59;;;18.02;nan
20942;BME280;10630;53.734;10.282;2022-11-04T02:20:44;99601.41;;;17.72;nan
20942;BME280;10630;53.734;10.282;2022-11-04T02:36:57;99589.09;;;17.77;nan
20942;BME280;10630;53.734;10.282;2022-11-04T02:39:32;99596.59;;;17.46;nan
20942;BME280;10630;53.734;10.282;2022-11-04T02:42:08;99607.69;;;16.85;nan
20942;BME280;10630;53.734;10.282;2022-11-04T02:44:40;99601.50;;;17.49;nan
20942;BME280;10630;53.734;10.282;2022-11-04T02:47:12;99605.47;;;17.58;nan
20942;BME280;10630;53.734;10.282;2022-11-04T02:53:00;99594.31;;;17.95;nan
20942;BME280;10630;53.734;10.282;2022-11-04T02:55:24;99579.88;;;18.18;nan
20942;BME280;10630;53.734;10.282;2022-11-04T02:57:53;99592.25;;;17.16;nan
20942;BME280;10630;53.734;10.282;2022-11-04T03:00:23;99586.28;;;17.83;nan
20942;BME280;10630;53.734;10.282;2022-11-04T03:03:00;99591.72;;;18.34;nan
20942;BME280;10630;53.734;10.282;2022-11-04T03:05:30;99601.44;;;17.90;nan
20942;BME280;10630;53.734;10.282;2022-11-04T03:08:02;99603.50;;;17.99;nan
20942;BME280;10630;53.734;10.282;2022-11-04T03:10:33;99605.25;;;17.48;nan
20942;BME280;10630;53.734;10.282;2022-11-04T03:13:04;99606.22;;;17.70;nan
20942;BME280;10630;53.734;10.282;2022-11-04T03:15:33;99608.75;;;16.96;nan
20942;BME280;10630;53.734;10.282;2022-11-04T03:18:08;99614.28;;;17.42;nan
20942;BME280;10630;53.734;10.282;2022-11-04T03:20:40;99604.91;;;17.73;nan
20942;BME280;10630;53.734;10.282;2022-11-04T03:23:08;99606.28;;;17.76;nan
20942;BME280;10630;53.734;10.282;2022-11-04T03:25:37;99613.75;;;18.31;nan
20942;BME280;10630;53.734;10.282;2022-11-04T03:30:37;99607.22;;;18.27;nan
20942;BME280;10630;53.734;10.282;2022-11-04T03:35:38;99602.19;;;17.56;nan
20942;BME280;10630;53.734;10.282;2022-11-04T03:40:56;99591.69;;;18.00;nan
20942;BME280;10630;53.734;10.282;2022-11-04T03:43:25;99600.28;;;17.85;nan
20942;BME280;10630;53.734;10.282;2022-11-04T03:45:53;99601.66;;;18.17;nan
20942;BME280;10630;53.734;10.282;2022-11-04T03:48:24;99609.66;;;17.54;nan
20942;BME280;10630;53.734;10.282;2022-11-04T03:50:51;99607.69;;;18.41;nan
20942;BME280;10630;53.734;10.282;2022-11-04T03:56:09;99612.09;;;18.30;nan
20942;BME280;10630;53.734;10.282;2022-11-04T04:03:39;99608.69;;;17.60;nan
20942;BME280;10630;53.734;10.282;2022-11-04T04:06:09;99606.09;;;17.36;nan
20942;BME280;10630;53.734;10.282;2022-11-04T04:08:48;99603.28;;;17.02;nan
20942;BME280;10630;53.734;10.282;2022-11-04T04:11:20;99614.38;;;17.47;nan
20942;BME280;10630;53.734;10.282;2022-11-04T04:14:03;99597.53;;;17.51;nan
20942;BME280;10630;53.734;10.282;2022-11-04T04:16:32;99591.88;;;18.28;nan
20942;BME280;10630;53.734;10.282;2022-11-04T04:19:03;99593.50;;;18.46;nan
20942;BME280;10630;53.734;10.282;2022-11-04T04:21:36;99586.72;;;18.09;nan
20942;BME280;10630;53.734;10.282;2022-11-04T04:24:06;99605.22;;;18.06;nan
20942;BME280;10630;53.734;10.282;2022-11-04T04:26:53;99600.41;;;18.59;nan
20942;BME280;10630;53.734;10.282;2022-11-04T04:29:39;99598.63;;;18.30;nan
20942;BME280;10630;53.734;10.282;2022-11-04T04:32:09;99613.03;;;17.61;nan
20942;BME280;10630;53.734;10.282;2022-11-04T04:34:36;99612.50;;;18.39;nan
20942;BME280;10630;53.734;10.282;2022-11-04T04:37:17;99610.59;;;18.06;nan
20942;BME280;10630;53.734;10.282;2022-11-04T04:39:46;99624.22;;;17.29;nan
20942;BME280;10630;53.734;10.282;2022-11-04T04:42:32;99623.47;;;18.32;nan
20942;BME280;10630;53.734;10.282;2022-11-04T04:45:32;99638.06;;;18.54;nan
20942;BME280;10630;53.734;10.282;2022-11-04T04:48:06;99655.09;;;17.67;nan
20942;BME280;10630;53.734;10.282;2022-11-04T04:50:35;99648.25;;;17.60;nan
20942;BME280;10630;53.734;10.282;2022-11-04T04:53:04;99647.50;;;17.35;nan
20942;BME280;10630;53.734;10.282;2022-11-04T04:55:31;99652.34;;;17.09;nan
20942;BME280;10630;53.734;10.282;2022-11-04T04:58:00;99654.94;;;16.92;nan
20942;BME280;10630;53.734;10.282;2022-11-04T05:00:27;99657.03;;;17.84;nan
20942;BME280;10630;53.734;10.282;2022-11-04T05:03:08;99659.00;;;18.17;nan
20942;BME280;10630;53.734;10.282;2022-11-04T05:05:35;99669.72;;;17.31;nan
20942;BME280;10630;53.734;10.282;2022-11-04T05:08:06;99676.28;;;17.11;nan
20942;BME280;10630;53.734;10.282;2022-11-04T05:10:34;99668.25;;;18.22;nan
20942;BME280;10630;53.734;10.282;2022-11-04T05:13:07;99676.94;;;17.83;nan
20942;BME280;10630;53.734;10.282;2022-11-04T05:15:53;99681.25;;;17.84;nan
20942;BME280;10630;53.734;10.282;2022-11-04T05:18:23;99685.50;;;17.80;nan
20942;BME280;10630;53.734;10.282;2022-11-04T05:20:50;99697.66;;;17.42;nan
20942;BME280;10630;53.734;10.282;2022-11-04T05:23:19;99711.00;;;17.77;nan
20942;BME280;10630;53.734;10.282;2022-11-04T05:25:46;99708.19;;;17.72;nan
20942;BME280;10630;53.734;10.282;2022-11-04T05:28:14;99707.72;;;18.16;nan
20942;BME280;10630;53.734;10.282;2022-11-04T05:30:41;99703.19;;;18.33;nan
20942;BME280;10630;53.734;10.282;2022-11-04T05:33:08;99712.13;;;18.22;nan
20942;BME280;10630;53.734;10.282;2022-11-04T05:35:42;99708.28;;;18.81;nan
20942;BME280;10630;53.734;10.282;2022-11-04T05:38:09;99716.75;;;19.07;nan
20942;BME280;10630;53.734;10.282;2022-11-04T05:40:48;99714.81;;;19.02;nan
20942;BME280;10630;53.734;10.282;2022-11-04T05:43:15;99718.38;;;18.91;nan
20942;BME280;10630;53.734;10.282;2022-11-04T05:45:42;99724.44;;;19.15;nan
20942;BME280;10630;53.734;10.282;2022-11-04T05:48:09;99722.50;;;18.93;nan
20942;BME280;10630;53.734;10.282;2022-11-04T05:50:35;99728.50;;;18.66;nan
20942;BME280;10630;53.734;10.282;2022-11-04T05:53:03;99737.50;;;18.72;nan
20942;BME280;10630;53.734;10.282;2022-11-04T05:55:31;99750.59;;;18.34;nan
20942;BME280;10630;53.734;10.282;2022-11-04T05:57:59;99748.69;;;18.18;nan
20942;BME280;10630;53.734;10.282;2022-11-04T06:00:26;99760.19;;;18.59;nan
20942;BME280;10630;53.734;10.282;2022-11-04T06:02:53;99758.78;;;18.40;nan
20942;BME280;10630;53.734;10.282;2022-11-04T06:05:22;99754.75;;;18.25;nan
20942;BME280;10630;53.734;10.282;2022-11-04T06:07:49;99760.13;;;17.84;nan
20942;BME280;10630;53.734;10.282;2022-11-04T06:10:17;99763.91;;;18.41;nan
20942;BME280;10630;53.734;10.282;2022-11-04T06:12:51;99769.25;;;18.24;nan
20942;BME280;10630;53.734;10.282;2022-11-04T06:15:19;99772.34;;;18.16;nan
20942;BME280;10630;53.734;10.282;2022-11-04T06:17:46;99780.53;;;18.09;nan
20942;BME280;10630;53.734;10.282;2022-11-04T06:20:13;99782.59;;;17.66;nan
20942;BME280;10630;53.734;10.282;2022-11-04T06:22:40;99776.97;;;18.32;nan
20942;BME280;10630;53.734;10.282;2022-11-04T06:25:08;99770.28;;;18.52;nan
20942;BME280;10630;53.734;10.282;2022-11-04T06:27:35;99778.38;;;18.52;nan
20942;BME280;10630;53.734;10.282;2022-11-04T06:30:02;99778.00;;;18.77;nan
20942;BME280;10630;53.734;10.282;2022-11-04T06:35:09;99791.19;;;18.45;nan
20942;BME280;10630;53.734;10.282;2022-11-04T06:37:36;99790.50;;;18.38;nan
20942;BME280;10630;53.734;10.282;2022-11-04T06:40:16;99797.53;;;18.39;nan
20942;BME280;10630;53.734;10.282;2022-11-04T06:42:43;99807.09;;;18.17;nan
20942;BME280;10630;53.734;10.282;2022-11-04T06:47:40;99801.09;;;18.56;nan
20942;BME280;10630;53.734;10.282;2022-11-04T06:50:07;99819.78;;;18.05;nan
20942;BME280;10630;53.734;10.282;2022-11-04T06:55:20;99823.59;;;18.21;nan
20942;BME280;10630;53.734;10.282;2022-11-04T06:57:48;99817.25;;;18.27;nan
20942;BME280;10630;53.734;10.282;2022-11-04T07:00:15;99821.31;;;19.05;nan
20942;BME280;10630;53.734;10.282;2022-11-04T07:02:44;99815.06;;;18.70;nan
20942;BME280;10630;53.734;10.282;2022-11-04T07:05:11;99828.59;;;18.58;nan
20942;BME280;10630;53.734;10.282;2022-11-04T07:07:38;99827.47;;;18.13;nan
20942;BME280;10630;53.734;10.282;2022-11-04T07:10:05;99827.81;;;18.17;nan
20942;BME280;10630;53.734;10.282;2022-11-04T07:12:32;99827.16;;;18.96;nan
20942;BME280;10630;53.734;10.282;2022-11-04T07:14:59;99831.13;;;18.94;nan
20942;BME280;10630;53.734;10.282;2022-11-04T07:17:26;99841.09;;;18.35;nan
20942;BME280;10630;53.734;10.282;2022-11-04T07:19:53;99848.56;;;18.45;nan
20942;BME280;10630;53.734;10.282;2022-11-04T07:22:20;99849.56;;;18.27;nan
20942;BME280;10630;53.734;10.282;2022-11-04T07:24:47;99858.34;;;18.34;nan
20942;BME280;10630;53.734;10.282;2022-11-04T07:27:15;99861.22;;;18.45;nan
20942;BME280;10630;53.734;10.282;2022-11-04T07:29:42;99869.97;;;18.52;nan
20942;BME280;10630;53.734;10.282;2022-11-04T07:32:09;99883.31;;;18.18;nan
20942;BME280;10630;53.734;10.282;2022-11-04T07:34:35;99886.00;;;18.88;nan
20942;BME280;10630;53.734;10.282;2022-11-04T07:37:02;99891.63;;;18.57;nan
20942;BME280;10630;53.734;10.282;2022-11-04T07:39:29;99891.75;;;17.86;nan
20942;BME280;10630;53.734;10.282;2022-11-04T07:41:56;99896.31;;;17.97;nan
20942;BME280;10630;53.734;10.282;2022-11-04T07:44:25;99897.41;;;17.96;nan
20942;BME280;10630;53.734;10.282;2022-11-04T07:46:51;99907.84;;;18.74;nan
20942;BME280;10630;53.734;10.282;2022-11-04T07:49:21;99908.00;;;18.15;nan
20942;BME280;10630;53.734;10.282;2022-11-04T07:51:48;99900.78;;;18.56;nan
20942;BME280;10630;53.734;10.282;2022-11-04T07:54:22;99919.88;;;18.95;nan
20942;BME280;10630;53.734;10.282;2022-11-04T07:56:49;99905.03;;;19.27;nan
20942;BME280;10630;53.734;10.282;2022-11-04T07:59:15;99913.94;;;19.27;nan
20942;BME280;10630;53.734;10.282;2022-11-04T08:01:43;99895.03;;;18.53;nan
20942;BME280;10630;53.734;10.282;2022-11-04T08:04:10;99878.06;;;19.10;nan
20942;BME280;10630;53.734;10.282;2022-11-04T08:09:38;99903.56;;;19.53;nan
20942;BME280;10630;53.734;10.282;2022-11-04T08:12:06;99912.06;;;19.11;nan
20942;BME280;10630;53.734;10.282;2022-11-04T08:14:33;99917.06;;;19.36;nan
20942;BME280;10630;53.734;10.282;2022-11-04T08:19:51;99924.94;;;19.09;nan
20942;BME280;10630;53.734;10.282;2022-11-04T08:22:18;99942.06;;;19.66;nan
20942;BME280;10630;53.734;10.282;2022-11-04T08:24:46;99921.34;;;19.20;nan
20942;BME280;10630;53.734;10.282;2022-11-04T08:27:14;99935.22;;;19.12;nan
20942;BME280;10630;53.734;10.282;2022-11-04T08:29:42;99934.38;;;19.40;nan
20942;BME280;10630;53.734;10.282;2022-11-04T08:32:16;99930.88;;;18.94;nan
20942;BME280;10630;53.734;10.282;2022-11-04T08:34:46;99932.31;;;19.13;nan
20942;BME280;10630;53.734;10.282;2022-11-04T08:37:15;99929.84;;;18.42;nan
20942;BME280;10630;53.734;10.282;2022-11-04T08:39:42;99926.31;;;18.54;nan
20942;BME280;10630;53.734;10.282;2022-11-04T08:42:09;99927.53;;;18.22;nan
20942;BME280;10630;53.734;10.282;2022-11-04T08:44:36;99931.59;;;18.48;nan
20942;BME280;10630;53.734;10.282;2022-11-04T08:47:05;99943.88;;;17.49;nan
20942;BME280;10630;53.734;10.282;2022-11-04T08:49:38;99935.13;;;18.78;nan
20942;BME280;10630;53.734;10.282;2022-11-04T08:52:05;99945.03;;;19.01;nan
20942;BME280;10630;53.734;10.282;2022-11-04T08:54:34;99938.97;;;18.94;nan
20942;BME280;10630;53.734;10.282;2022-11-04T08:57:02;99941.25;;;18.09;nan
20942;BME280;10630;53.734;10.282;2022-11-04T08:59:31;99945.63;;;18.91;nan
20942;BME280;10630;53.734;10.282;2022-11-04T09:01:58;99946.72;;;18.38;nan
20942;BME280;10630;53.734;10.282;2022-11-04T09:04:25;99954.94;;;18.43;nan
20942;BME280;10630;53.734;10.282;2022-11-04T09:09:24;99962.84;;;18.61;nan
20942;BME280;10630;53.734;10.282;2022-11-04T09:11:53;99961.06;;;18.67;nan
20942;BME280;10630;53.734;10.282;2022-11-04T09:14:21;99968.09;;;18.03;nan
20942;BME280;10630;53.734;10.282;2022-11-04T09:16:49;99968.38;;;19.24;nan
20942;BME280;10630;53.734;10.282;2022-11-04T09:19:16;99973.56;;;18.21;nan
20942;BME280;10630;53.734;10.282;2022-11-04T09:21:46;99968.72;;;18.99;nan
20942;BME280;10630;53.734;10.282;2022-11-04T09:24:12;99968.09;;;19.09;nan
20942;BME280;10630;53.734;10.282;2022-11-04T09:26:39;99969.59;;;17.99;nan
20942;BME280;10630;53.734;10.282;2022-11-04T09:29:06;99976.47;;;18.95;nan
20942;BME280;10630;53.734;10.282;2022-11-04T09:31:42;99981.09;;;18.59;nan
20942;BME280;10630;53.734;10.282;2022-11-04T09:34:09;99988.00;;;18.67;nan
20942;BME280;10630;53.734;10.282;2022-11-04T09:36:39;99988.44;;;19.17;nan
20942;BME280;10630;53.734;10.282;2022-11-04T09:39:06;99987.25;;;18.95;nan
20942;BME280;10630;53.734;10.282;2022-11-04T09:41:41;99999.81;;;18.78;nan
20942;BME280;10630;53.734;10.282;2022-11-04T09:46:43;99999.56;;;19.49;nan
20942;BME280;10630;53.734;10.282;2022-11-04T09:49:12;100003.78;;;19.45;nan
20942;BME280;10630;53.734;10.282;2022-11-04T09:51:42;99995.34;;;18.95;nan
20942;BME280;10630;53.734;10.282;2022-11-04T09:54:21;99999.91;;;19.53;nan
20942;BME280;10630;53.734;10.282;2022-11-04T09:56:50;100007.72;;;19.08;nan
20942;BME280;10630;53.734;10.282;2022-11-04T09:59:23;100002.38;;;19.25;nan
20942;BME280;10630;53.734;10.282;2022-11-04T10:02:00;100014.06;;;18.90;nan
20942;BME280;10630;53.734;10.282;2022-11-04T10:25:37;100010.63;;;19.65;nan
20942;BME280;10630;53.734;10.282;2022-11-04T10:28:09;100019.38;;;19.72;nan
20942;BME280;10630;53.734;10.282;2022-11-04T10:30:39;100014.81;;;19.26;nan
20942;BME280;10630;53.734;10.282;2022-11-04T10:33:14;100012.47;;;19.47;nan
20942;BME280;10630;53.734;10.282;2022-11-04T10:35:46;100016.03;;;19.36;nan
20942;BME280;10630;53.734;10.282;2022-11-04T10:38:21;100010.50;;;19.59;nan
20942;BME280;10630;53.734;10.282;2022-11-04T10:40:51;100007.53;;;19.44;nan
20942;BME280;10630;53.734;10.282;2022-11-04T10:43:25;100007.06;;;19.47;nan
20942;BME280;10630;53.734;10.282;2022-11-04T10:46:31;100008.06;;;19.75;nan
20942;BME280;10630;53.734;10.282;2022-11-04T10:48:58;100009.38;;;19.55;nan
20942;BME280;10630;53.734;10.282;2022-11-04T10:51:30;100010.44;;;19.71;nan
20942;BME280;10630;53.734;10.282;2022-11-04T10:53:57;100012.03;;;20.01;nan
20942;BME280;10630;53.734;10.282;2022-11-04T10:59:28;100000.56;;;19.94;nan
20942;BME280;10630;53.734;10.282;2022-11-04T11:01:58;100006.75;;;20.90;nan
20942;BME280;10630;53.734;10.282;2022-11-04T11:04:30;100005.06;;;20.84;nan
20942;BME280;10630;53.734;10.282;2022-11-04T11:06:59;100005.63;;;20.86;nan
20942;BME280;10630;53.734;10.282;2022-11-04T11:09:48;100017.75;;;20.44;nan
20942;BME280;10630;53.734;10.282;2022-11-04T11:12:23;100020.91;;;20.75;nan
20942;BME280;10630;53.734;10.282;2022-11-04T11:15:38;100031.38;;;20.71;nan
20942;BME280;10630;53.734;10.282;2022-11-04T11:18:15;100030.38;;;20.78;nan
20942;BME280;10630;53.734;10.282;2022-11-04T11:20:48;100035.56;;;20.40;nan
20942;BME280;10630;53.734;10.282;2022-11-04T11:26:02;100048.69;;;20.93;nan
20942;BME280;10630;53.734;10.282;2022-11-04T11:28:28;100058.22;;;20.39;nan
20942;BME280;10630;53.734;10.282;2022-11-04T11:31:00;100058.31;;;20.44;nan
20942;BME280;10630;53.734;10.282;2022-11-04T11:33:36;100073.38;;;20.40;nan
20942;BME280;10630;53.734;10.282;2022-11-04T11:36:14;100089.09;;;20.43;nan
20942;BME280;10630;53.734;10.282;2022-11-04T11:41:20;100082.78;;;20.54;nan
20942;BME280;10630;53.734;10.282;2022-11-04T11:43:54;100078.69;;;21.13;nan
20942;BME280;10630;53.734;10.282;2022-11-04T11:46:24;100079.72;;;20.68;nan
20942;BME280;10630;53.734;10.282;2022-11-04T11:48:53;100082.69;;;20.88;nan
20942;BME280;10630;53.734;10.282;2022-11-04T11:51:27;100083.09;;;20.97;nan
20942;BME280;10630;53.734;10.282;2022-11-04T11:56:45;100089.31;;;20.98;nan
20942;BME280;10630;53.734;10.282;2022-11-04T11:59:52;100086.13;;;21.50;nan
20942;BME280;10630;53.734;10.282;2022-11-04T12:02:57;100085.91;;;21.30;nan
20942;BME280;10630;53.734;10.282;2022-11-04T12:08:39;100084.28;;;20.84;nan
20942;BME280;10630;53.734;10.282;2022-11-04T12:11:41;100086.91;;;20.62;nan
20942;BME280;10630;53.734;10.282;2022-11-04T12:14:13;100087.47;;;20.42;nan
20942;BME280;10630;53.734;10.282;2022-11-04T12:40:11;100098.50;;;21.69;nan
20942;BME280;10630;53.734;10.282;2022-11-04T12:47:46;100099.91;;;21.49;nan
20942;BME280;10630;53.734;10.282;2022-11-04T12:52:56;100108.88;;;21.27;nan
20942;BME280;10630;53.734;10.282;2022-11-04T13:00:41;100114.66;;;21.58;nan
20942;BME280;10630;53.734;10.282;2022-11-04T13:03:12;100118.19;;;21.37;nan
20942;BME280;10630;53.734;10.282;2022-11-04T13:05:43;100118.69;;;21.11;nan
20942;BME280;10630;53.734;10.282;2022-11-04T13:13:06;100133.84;;;21.12;nan
20942;BME280;10630;53.734;10.282;2022-11-04T13:16:16;100135.56;;;21.18;nan
20942;BME280;10630;53.734;10.282;2022-11-04T13:18:25;100139.50;;;21.77;nan
20942;BME280;10630;53.734;10.282;2022-11-04T13:26:11;100143.09;;;20.94;nan
20942;BME280;10630;53.734;10.282;2022-11-04T13:28:39;100153.59;;;21.79;nan
20942;BME280;10630;53.734;10.282;2022-11-04T13:31:10;100147.31;;;21.07;nan
20942;BME280;10630;53.734;10.282;2022-11-04T13:33:46;100154.88;;;21.72;nan
20942;BME280;10630;53.734;10.282;2022-11-04T13:39:05;100161.69;;;20.91;nan
20942;BME280;10630;53.734;10.282;2022-11-04T13:41:46;100169.50;;;21.48;nan
20942;BME280;10630;53.734;10.282;2022-11-04T13:44:21;100176.72;;;21.43;nan
20942;BME280;10630;53.734;10.282;2022-11-04T13:46:50;100174.25;;;21.86;nan
20942;BME280;10630;53.734;10.282;2022-11-04T13:49:19;100182.53;;;21.12;nan
20942;BME280;10630;53.734;10.282;2022-11-04T13:52:13;100191.69;;;21.28;nan
20942;BME280;10630;53.734;10.282;2022-11-04T13:57:15;100196.97;;;21.18;nan
20942;BME280;10630;53.734;10.282;2022-11-04T14:00:04;100197.84;;;20.84;nan
20942;BME280;10630;53.734;10.282;2022-11-04T14:05:43;100199.78;;;21.68;nan
20942;BME280;10630;53.734;10.282;2022-11-04T14:18:27;100216.00;;;21.06;nan
20942;BME280;10630;53.734;10.282;2022-11-04T14:21:07;100218.16;;;20.87;nan
20942;BME280;10630;53.734;10.282;2022-11-04T14:23:34;100222.28;;;20.73;nan
20942;BME280;10630;53.734;10.282;2022-11-04T14:26:03;100231.81;;;20.46;nan
20942;BME280;10630;53.734;10.282;2022-11-04T14:28:31;100221.53;;;20.94;nan
20942;BME280;10630;53.734;10.282;2022-11-04T14:41:30;100228.09;;;21.21;nan
20942;BME280;10630;53.734;10.282;2022-11-04T14:44:00;100229.88;;;20.93;nan
20942;BME280;10630;53.734;10.282;2022-11-04T14:46:29;100235.88;;;20.78;nan
20942;BME280;10630;53.734;10.282;2022-11-04T14:48:57;100241.97;;;20.56;nan
20942;BME280;10630;53.734;10.282;2022-11-04T14:51:30;100239.03;;;21.09;nan
20942;BME280;10630;53.734;10.282;2022-11-04T14:56:43;100249.50;;;20.83;nan
20942;BME280;10630;53.734;10.282;2022-11-04T14:59:17;100262.72;;;20.67;nan
20942;BME280;10630;53.734;10.282;2022-11-04T15:01:45;100257.91;;;20.23;nan
20942;BME280;10630;53.734;10.282;2022-11-04T15:04:25;100255.59;;;20.61;nan
20942;BME280;10630;53.734;10.282;2022-11-04T15:06:53;100264.22;;;20.75;nan
20942;BME280;10630;53.734;10.282;2022-11-04T15:09:22;100268.97;;;20.85;nan
20942;BME280;10630;53.734;10.282;2022-11-04T15:11:50;100274.69;;;20.88;nan
20942;BME280;10630;53.734;10.282;2022-11-04T15:14:36;100271.59;;;20.80;nan
20942;BME280;10630;53.734;10.282;2022-11-04T15:17:02;100276.19;;;20.79;nan
20942;BME280;10630;53.734;10.282;2022-11-04T15:19:30;100280.69;;;20.74;nan
20942;BME280;10630;53.734;10.282;2022-11-04T15:22:04;100287.47;;;20.59;nan
20942;BME280;10630;53.734;10.282;2022-11-04T15:24:31;100285.50;;;20.88;nan
20942;BME280;10630;53.734;10.282;2022-11-04T15:27:03;100290.38;;;20.86;nan
20942;BME280;10630;53.734;10.282;2022-11-04T15:29:32;100281.97;;;20.71;nan
20942;BME280;10630;53.734;10.282;2022-11-04T15:32:00;100285.81;;;20.58;nan
20942;BME280;10630;53.734;10.282;2022-11-04T15:34:30;100288.50;;;20.41;nan
20942;BME280;10630;53.734;10.282;2022-11-04T15:37:01;100307.03;;;20.49;nan
20942;BME280;10630;53.734;10.282;2022-11-04T15:39:35;100301.16;;;19.59;nan
20942;BME280;10630;53.734;10.282;2022-11-04T15:42:06;100311.81;;;19.89;nan
20942;BME280;10630;53.734;10.282;2022-11-04T15:44:52;100323.50;;;20.07;nan
20942;BME280;10630;53.734;10.282;2022-11-04T15:47:24;100324.63;;;19.46;nan
20942;BME280;10630;53.734;10.282;2022-11-04T15:49:52;100328.84;;;19.78;nan
20942;BME280;10630;53.734;10.282;2022-11-04T15:52:23;100328.44;;;20.10;nan
20942;BME280;10630;53.734;10.282;2022-11-04T15:54:57;100331.03;;;19.81;nan
20942;BME280;10630;53.734;10.282;2022-11-04T16:02:57;100339.22;;;20.22;nan
20942;BME280;10630;53.734;10.282;2022-11-04T16:05:29;100344.66;;;20.10;nan
20942;BME280;10630;53.734;10.282;2022-11-04T16:10:48;100352.56;;;19.52;nan
20942;BME280;10630;53.734;10.282;2022-11-04T16:18:28;100359.47;;;19.96;nan
20942;BME280;10630;53.734;10.282;2022-11-04T16:21:13;100354.53;;;19.92;nan
20942;BME280;10630;53.734;10.282;2022-11-04T16:23:51;100361.81;;;19.80;nan
20942;BME280;10630;53.734;10.282;2022-11-04T16:26:27;100361.22;;;19.66;nan
20942;BME280;10630;53.734;10.282;2022-11-04T16:28:56;100366.75;;;19.59;nan
20942;BME280;10630;53.734;10.282;2022-11-04T16:31:27;100370.16;;;19.55;nan
20942;BME280;10630;53.734;10.282;2022-11-04T16:33:57;100371.94;;;19.61;nan